Time;durP1;ratioP1;P1;durP2;ratioP2;P2;SDS_P1;SDS_P2;PMS_P1;PMS_P2;Temp;Humidity;BMP_temperature;BMP_pressure;BME280_temperature;BME280_humidity;BME280_pressure;Samples;Min_cycle;Max_cycle;Signal;HPM_P1;HPM_P2
2022/03/09 00:00:24;;;;;;;5.85;3.33;;;;;;;;;;5096289;27;20492;-78
2022/03/09 00:02:50;;;;;;;5.22;3.42;;;;;;;;;;5088936;27;20036;-78
2022/03/09 00:05:19;;;;;;;6.72;3.53;;;;;;;;;;5077878;28;20518;-78
2022/03/09 00:07:45;;;;;;;6.15;3.55;;;;;;;;;;5092683;27;20482;-78
2022/03/09 00:10:11;;;;;;;6.68;3.33;;;;;;;;;;5078452;28;20537;-78
2022/03/09 00:12:37;;;;;;;7.15;4.00;;;;;;;;;;5073936;28;20422;-77
2022/03/09 00:15:03;;;;;;;8.40;4.63;;;;;;;;;;5077673;28;20032;-77
2022/03/09 00:17:29;;;;;;;6.45;3.03;;;;;;;;;;5088320;27;20063;-78
2022/03/09 00:19:56;;;;;;;11.38;3.35;;;;;;;;;;5097037;27;20044;-77
2022/03/09 00:22:22;;;;;;;3.67;3.05;;;;;;;;;;5080468;28;20054;-78
2022/03/09 00:24:48;;;;;;;7.70;4.90;;;;;;;;;;5094158;27;20036;-78
2022/03/09 00:27:14;;;;;;;6.45;3.40;;;;;;;;;;5093351;27;20051;-77
2022/03/09 00:29:40;;;;;;;6.22;3.42;;;;;;;;;;5074482;27;20110;-78
2022/03/09 00:32:06;;;;;;;6.50;3.13;;;;;;;;;;5093621;27;20028;-77
2022/03/09 00:34:35;;;;;;;7.03;3.33;;;;;;;;;;5075766;27;20486;-77
2022/03/09 00:37:09;;;;;;;6.70;3.80;;;;;;;;;;5073110;27;20047;-77
2022/03/09 00:39:35;;;;;;;6.63;3.70;;;;;;;;;;5077754;27;20049;-77
2022/03/09 00:42:01;;;;;;;6.20;3.60;;;;;;;;;;5073847;28;20565;-77
2022/03/09 00:44:28;;;;;;;5.47;3.10;;;;;;;;;;5069367;27;20048;-78
2022/03/09 00:46:56;;;;;;;7.28;3.58;;;;;;;;;;5075610;28;20039;-77
2022/03/09 00:49:22;;;;;;;6.05;3.20;;;;;;;;;;5076689;27;20544;-77
2022/03/09 00:51:49;;;;;;;7.57;4.07;;;;;;;;;;5078086;27;20035;-77
2022/03/09 00:54:15;;;;;;;9.27;4.55;;;;;;;;;;5074177;27;20650;-78
2022/03/09 00:56:49;;;;;;;6.57;4.07;;;;;;;;;;5099216;27;20048;-78
2022/03/09 00:59:16;;;;;;;7.03;4.25;;;;;;;;;;5077393;28;20051;-78
2022/03/09 01:01:42;;;;;;;6.65;3.70;;;;;;;;;;5076014;27;20067;-79
2022/03/09 01:04:08;;;;;;;11.73;4.30;;;;;;;;;;5074937;28;20585;-78
2022/03/09 01:06:34;;;;;;;6.28;3.22;;;;;;;;;;5073919;28;20055;-79
2022/03/09 01:09:06;;;;;;;9.30;3.38;;;;;;;;;;5095876;27;20047;-76
2022/03/09 01:11:32;;;;;;;6.13;3.80;;;;;;;;;;5067093;27;20072;-77
2022/03/09 01:14:00;;;;;;;6.65;3.17;;;;;;;;;;5072457;27;20056;-76
2022/03/09 01:16:26;;;;;;;5.68;3.00;;;;;;;;;;5090833;27;20031;-77
2022/03/09 01:18:52;;;;;;;6.47;3.63;;;;;;;;;;5075661;27;20123;-77
2022/03/09 01:21:18;;;;;;;5.07;2.80;;;;;;;;;;5076194;28;20102;-77
2022/03/09 01:23:44;;;;;;;6.32;3.28;;;;;;;;;;5077644;27;20070;-77
2022/03/09 01:26:10;;;;;;;4.72;3.00;;;;;;;;;;5073335;27;20037;-78
2022/03/09 01:28:36;;;;;;;7.57;3.60;;;;;;;;;;5078951;27;20134;-77
2022/03/09 01:31:02;;;;;;;5.45;3.08;;;;;;;;;;5071814;27;20047;-77
2022/03/09 01:33:29;;;;;;;6.55;3.50;;;;;;;;;;5096960;27;20044;-77
2022/03/09 01:35:58;;;;;;;6.93;3.53;;;;;;;;;;5077359;27;20575;-77
2022/03/09 01:38:24;;;;;;;5.00;2.72;;;;;;;;;;5074534;27;20082;-77
2022/03/09 01:40:50;;;;;;;6.38;3.38;;;;;;;;;;5073816;27;20055;-77
2022/03/09 01:43:18;;;;;;;6.00;3.45;;;;;;;;;;5099576;27;20063;-77
2022/03/09 01:45:44;;;;;;;5.63;3.58;;;;;;;;;;5072850;27;20555;-77
2022/03/09 01:48:10;;;;;;;6.30;3.88;;;;;;;;;;5074813;27;20043;-77
2022/03/09 01:50:36;;;;;;;10.00;4.40;;;;;;;;;;5073475;27;20048;-77
2022/03/09 01:53:02;;;;;;;9.80;4.10;;;;;;;;;;5065562;28;20094;-78
2022/03/09 01:55:28;;;;;;;7.13;3.67;;;;;;;;;;5090823;27;20040;-78
2022/03/09 01:57:55;;;;;;;5.38;3.40;;;;;;;;;;5094055;27;20028;-78
2022/03/09 02:00:22;;;;;;;7.28;3.97;;;;;;;;;;5070590;28;20070;-78
2022/03/09 02:02:48;;;;;;;6.10;3.95;;;;;;;;;;5076818;28;20098;-77
2022/03/09 02:05:17;;;;;;;5.60;3.20;;;;;;;;;;5082657;27;20048;-77
2022/03/09 02:10:28;;;;;;;7.80;4.05;;;;;;;;;;5087669;27;20102;-77
2022/03/09 02:12:54;;;;;;;5.43;3.05;;;;;;;;;;5092662;27;20039;-77
2022/03/09 02:15:20;;;;;;;7.53;3.67;;;;;;;;;;5091958;27;20529;-78
2022/03/09 02:17:47;;;;;;;6.82;3.17;;;;;;;;;;5074694;27;20055;-77
2022/03/09 02:20:13;;;;;;;7.50;3.47;;;;;;;;;;5090412;27;20051;-77
2022/03/09 02:22:40;;;;;;;9.05;4.10;;;;;;;;;;5071844;28;20044;-77
2022/03/09 02:25:10;;;;;;;6.03;3.92;;;;;;;;;;5093107;27;20078;-77
2022/03/09 02:27:36;;;;;;;7.05;3.20;;;;;;;;;;5075292;27;20532;-77
2022/03/09 02:30:03;;;;;;;8.63;4.15;;;;;;;;;;5075280;27;20052;-77
2022/03/09 02:32:29;;;;;;;8.30;3.88;;;;;;;;;;5064931;28;20043;-77
2022/03/09 02:34:58;;;;;;;7.28;3.40;;;;;;;;;;5091916;27;20047;-77
2022/03/09 02:37:28;;;;;;;6.53;3.70;;;;;;;;;;5090873;27;20226;-78
2022/03/09 02:39:54;;;;;;;5.35;2.95;;;;;;;;;;5091883;27;20565;-77
2022/03/09 02:42:20;;;;;;;7.22;4.07;;;;;;;;;;5094480;27;20530;-77
2022/03/09 02:44:46;;;;;;;9.45;3.50;;;;;;;;;;5076259;28;20037;-76
2022/03/09 02:47:12;;;;;;;8.60;2.97;;;;;;;;;;5073011;28;20537;-77
2022/03/09 02:49:38;;;;;;;7.50;3.55;;;;;;;;;;5070125;28;20043;-77
2022/03/09 02:52:05;;;;;;;7.70;3.65;;;;;;;;;;5072345;28;20121;-77
2022/03/09 02:54:31;;;;;;;6.38;3.30;;;;;;;;;;5071666;28;20110;-76
2022/03/09 02:56:57;;;;;;;8.48;3.75;;;;;;;;;;5073631;28;20044;-77
2022/03/09 02:59:23;;;;;;;6.35;2.88;;;;;;;;;;5073086;28;20044;-77
2022/03/09 03:01:49;;;;;;;6.50;3.63;;;;;;;;;;5073649;27;20044;-77
2022/03/09 03:04:15;;;;;;;7.63;3.53;;;;;;;;;;5070326;28;20533;-77
2022/03/09 03:06:41;;;;;;;7.68;3.20;;;;;;;;;;5082741;27;20059;-77
2022/03/09 03:09:08;;;;;;;4.25;2.78;;;;;;;;;;5066127;28;20029;-77
2022/03/09 03:11:34;;;;;;;5.82;3.45;;;;;;;;;;5073862;27;22105;-77
2022/03/09 03:14:00;;;;;;;4.63;3.08;;;;;;;;;;5072263;28;20048;-77
2022/03/09 03:16:26;;;;;;;5.60;3.25;;;;;;;;;;5075006;27;20049;-78
2022/03/09 03:18:52;;;;;;;8.00;3.95;;;;;;;;;;5076093;27;20035;-76
2022/03/09 03:21:18;;;;;;;5.60;3.53;;;;;;;;;;5076896;27;20040;-76
2022/03/09 03:23:44;;;;;;;7.18;3.83;;;;;;;;;;5073578;27;20767;-77
2022/03/09 03:26:10;;;;;;;8.15;4.90;;;;;;;;;;5093808;27;20048;-77
2022/03/09 03:28:36;;;;;;;7.93;3.92;;;;;;;;;;5079818;27;20107;-77
2022/03/09 03:31:06;;;;;;;5.60;3.35;;;;;;;;;;5076630;27;20098;-77
2022/03/09 03:33:32;;;;;;;6.35;3.80;;;;;;;;;;5075022;27;20129;-77
2022/03/09 03:35:58;;;;;;;5.65;3.45;;;;;;;;;;5074575;27;20399;-77
2022/03/09 03:38:25;;;;;;;6.00;3.72;;;;;;;;;;5073947;27;20052;-77
2022/03/09 03:40:51;;;;;;;5.95;3.90;;;;;;;;;;5087270;27;20041;-77
2022/03/09 03:43:17;;;;;;;8.35;4.22;;;;;;;;;;5074976;27;20044;-77
2022/03/09 03:45:43;;;;;;;5.13;3.35;;;;;;;;;;5079172;27;20541;-76
2022/03/09 03:48:12;;;;;;;10.00;6.80;;;;;;;;;;5075046;27;20040;-77
2022/03/09 03:50:40;;;;;;;6.10;3.55;;;;;;;;;;5074596;27;20048;-78
2022/03/09 03:53:09;;;;;;;9.88;4.55;;;;;;;;;;5077986;27;20047;-78
2022/03/09 03:55:37;;;;;;;8.30;4.18;;;;;;;;;;5078430;27;20528;-77
2022/03/09 03:58:03;;;;;;;7.50;4.50;;;;;;;;;;5089093;27;20040;-78
2022/03/09 04:00:30;;;;;;;9.02;4.47;;;;;;;;;;5075108;27;20204;-77
2022/03/09 04:02:56;;;;;;;9.32;5.32;;;;;;;;;;5099028;27;20052;-77
2022/03/09 04:05:22;;;;;;;10.20;5.32;;;;;;;;;;5079835;27;20060;-77
2022/03/09 04:07:48;;;;;;;7.40;4.95;;;;;;;;;;5074448;28;20038;-77
2022/03/09 04:10:14;;;;;;;8.02;4.35;;;;;;;;;;5087695;27;20040;-77
2022/03/09 04:12:40;;;;;;;8.13;4.63;;;;;;;;;;5072313;28;20068;-77
2022/03/09 04:15:07;;;;;;;10.98;4.85;;;;;;;;;;5083508;27;20282;-77
2022/03/09 04:17:39;;;;;;;8.25;4.60;;;;;;;;;;5071912;28;20132;-77
2022/03/09 04:20:06;;;;;;;13.90;6.18;;;;;;;;;;5076735;28;20046;-77
2022/03/09 04:22:32;;;;;;;7.53;4.45;;;;;;;;;;5075340;28;20094;-77
2022/03/09 04:24:59;;;;;;;8.93;4.43;;;;;;;;;;5076331;28;20102;-76
2022/03/09 04:27:25;;;;;;;9.85;4.90;;;;;;;;;;5075631;28;20040;-77
2022/03/09 04:29:51;;;;;;;10.43;5.68;;;;;;;;;;5092041;27;20097;-76
2022/03/09 04:32:17;;;;;;;9.10;5.43;;;;;;;;;;5071943;28;20033;-77
2022/03/09 04:34:44;;;;;;;11.77;5.25;;;;;;;;;;5071994;28;20044;-77
2022/03/09 04:37:10;;;;;;;12.40;5.40;;;;;;;;;;5076049;28;20045;-77
2022/03/09 04:39:39;;;;;;;8.52;5.70;;;;;;;;;;5076162;28;20807;-77
2022/03/09 04:42:05;;;;;;;8.65;5.35;;;;;;;;;;5080018;28;20040;-76
2022/03/09 04:44:31;;;;;;;9.23;5.50;;;;;;;;;;5093670;27;20044;-77
2022/03/09 04:46:57;;;;;;;10.35;5.00;;;;;;;;;;5074154;28;20039;-77
2022/03/09 04:49:23;;;;;;;7.55;4.63;;;;;;;;;;5078238;28;20168;-77
2022/03/09 04:51:49;;;;;;;11.40;5.90;;;;;;;;;;5092678;27;20941;-76
2022/03/09 04:54:15;;;;;;;8.70;5.03;;;;;;;;;;5071349;28;20049;-75
2022/03/09 04:56:41;;;;;;;12.80;6.18;;;;;;;;;;5077368;27;20078;-77
2022/03/09 04:59:10;;;;;;;9.38;5.82;;;;;;;;;;5076459;27;20442;-76
2022/03/09 05:01:36;;;;;;;11.75;6.03;;;;;;;;;;5091440;27;20065;-76
2022/03/09 05:04:02;;;;;;;9.00;5.15;;;;;;;;;;5071448;27;20288;-75
2022/03/09 05:06:28;;;;;;;8.75;4.45;;;;;;;;;;5077552;27;20099;-77
2022/03/09 05:08:55;;;;;;;9.63;5.28;;;;;;;;;;5089765;27;20048;-77
2022/03/09 05:11:21;;;;;;;10.43;5.00;;;;;;;;;;5077729;27;20044;-77
2022/03/09 05:13:47;;;;;;;10.38;5.30;;;;;;;;;;5092612;27;20045;-77
2022/03/09 05:16:16;;;;;;;10.05;4.90;;;;;;;;;;5076176;28;20047;-77
2022/03/09 05:18:42;;;;;;;9.18;5.20;;;;;;;;;;5096895;27;20133;-78
2022/03/09 05:21:09;;;;;;;7.22;4.93;;;;;;;;;;5075433;27;20048;-77
2022/03/09 05:23:35;;;;;;;10.18;5.15;;;;;;;;;;5078191;28;20106;-77
2022/03/09 05:26:04;;;;;;;11.23;5.35;;;;;;;;;;5078644;27;20947;-77
2022/03/09 05:28:30;;;;;;;9.68;5.53;;;;;;;;;;5090694;27;20093;-77
2022/03/09 05:30:57;;;;;;;10.10;4.57;;;;;;;;;;5073133;27;20033;-77
2022/03/09 05:33:23;;;;;;;10.23;5.97;;;;;;;;;;5076751;27;20511;-78
2022/03/09 05:35:49;;;;;;;8.43;5.20;;;;;;;;;;5073560;27;20048;-76
2022/03/09 05:38:15;;;;;;;8.32;4.40;;;;;;;;;;5089684;27;20121;-77
2022/03/09 05:40:41;;;;;;;6.88;4.65;;;;;;;;;;5074540;27;20040;-77
2022/03/09 05:43:07;;;;;;;9.00;5.72;;;;;;;;;;5074612;28;20600;-77
2022/03/09 05:45:36;;;;;;;6.50;4.55;;;;;;;;;;5070008;28;20544;-77
2022/03/09 05:48:04;;;;;;;11.55;5.28;;;;;;;;;;5088777;27;20044;-76
2022/03/09 05:50:31;;;;;;;11.20;6.25;;;;;;;;;;5074366;28;20037;-77
2022/03/09 05:52:57;;;;;;;10.43;5.50;;;;;;;;;;5077179;28;20521;-77
2022/03/09 05:55:23;;;;;;;10.77;5.65;;;;;;;;;;5076093;28;20637;-77
2022/03/09 05:57:49;;;;;;;10.48;6.45;;;;;;;;;;5082380;28;20055;-75
2022/03/09 06:00:16;;;;;;;10.82;5.88;;;;;;;;;;5071616;28;20044;-77
2022/03/09 06:02:44;;;;;;;12.73;5.55;;;;;;;;;;5073487;28;20049;-77
2022/03/09 06:05:10;;;;;;;9.43;5.70;;;;;;;;;;5070906;28;20106;-77
2022/03/09 06:07:37;;;;;;;8.40;5.50;;;;;;;;;;5097489;27;20048;-77
2022/03/09 06:10:03;;;;;;;9.52;5.57;;;;;;;;;;5074458;27;20044;-77
2022/03/09 06:12:29;;;;;;;9.38;4.50;;;;;;;;;;5090750;27;20749;-76
2022/03/09 06:15:09;;;;;;;7.38;5.15;;;;;;;;;;5074161;28;20069;-78
2022/03/09 06:18:01;;;;;;;11.40;4.63;;;;;;;;;;5071774;28;20047;-77
2022/03/09 06:20:58;;;;;;;11.63;5.60;;;;;;;;;;5075098;27;20047;-75
2022/03/09 06:23:29;;;;;;;14.65;5.68;;;;;;;;;;5071522;27;20135;-77
2022/03/09 06:25:59;;;;;;;8.77;5.85;;;;;;;;;;5076085;27;20072;-77
2022/03/09 06:28:42;;;;;;;9.27;4.78;;;;;;;;;;5086745;27;20032;-78
2022/03/09 06:31:16;;;;;;;11.23;5.10;;;;;;;;;;5075650;27;20579;-75
2022/03/09 06:33:52;;;;;;;10.55;4.93;;;;;;;;;;5075889;28;20048;-76
2022/03/09 06:36:37;;;;;;;10.23;5.45;;;;;;;;;;5073696;28;20036;-76
2022/03/09 06:39:14;;;;;;;11.60;4.82;;;;;;;;;;5085389;27;20067;-75
2022/03/09 06:41:58;;;;;;;8.90;4.80;;;;;;;;;;5071641;28;20052;-75
2022/03/09 06:44:35;;;;;;;9.38;4.88;;;;;;;;;;5073968;28;20526;-76
2022/03/09 06:47:16;;;;;;;8.50;4.57;;;;;;;;;;5074945;28;20040;-75
2022/03/09 06:49:50;;;;;;;8.43;4.63;;;;;;;;;;5092314;27;20098;-77
2022/03/09 06:52:50;;;;;;;10.70;4.32;;;;;;;;;;5072127;27;20048;-82
2022/03/09 06:55:34;;;;;;;9.70;4.68;;;;;;;;;;5073082;28;20626;-75
2022/03/09 06:58:27;;;;;;;8.27;4.22;;;;;;;;;;5069287;27;20505;-76
2022/03/09 07:00:55;;;;;;;;;;;;;;;;;;5071644;27;20044;-75
2022/03/09 07:03:28;;;;;;;5.32;3.72;;;;;;;;;;5073455;28;19978;-75
2022/03/09 07:06:15;;;;;;;8.18;4.03;;;;;;;;;;5070110;28;20072;-74
2022/03/09 07:09:00;;;;;;;7.25;3.63;;;;;;;;;;5070807;28;20097;-75
2022/03/09 07:11:38;;;;;;;;;;;;;;;;;;;;;
2022/03/09 07:14:14;;;;;;;10.88;4.50;;;;;;;;;;5067941;28;38806;-74
2022/03/09 07:17:01;;;;;;;9.55;5.03;;;;;;;;;;5070698;28;20098;-75
2022/03/09 07:19:33;;;;;;;7.53;3.47;;;;;;;;;;5068276;28;20040;-75
2022/03/09 07:24:46;;;;;;;10.85;4.10;;;;;;;;;;5071404;28;20049;-75
2022/03/09 07:27:14;;;;;;;6.93;4.07;;;;;;;;;;5069014;28;20040;-76
2022/03/09 07:29:43;;;;;;;8.50;3.58;;;;;;;;;;5071428;28;20121;-75
2022/03/09 07:32:14;;;;;;;7.78;4.22;;;;;;;;;;5064237;28;20045;-76
2022/03/09 07:34:42;;;;;;;7.30;3.78;;;;;;;;;;5068096;28;20051;-75
2022/03/09 07:37:11;;;;;;;11.93;4.10;;;;;;;;;;5069172;28;20116;-76
2022/03/09 07:39:51;;;;;;;7.35;3.75;;;;;;;;;;5066633;28;20215;-79
2022/03/09 07:42:17;;;;;;;9.65;4.95;;;;;;;;;;5063313;28;20044;-76
2022/03/09 07:44:43;;;;;;;8.40;4.38;;;;;;;;;;5072193;28;20509;-76
2022/03/09 07:47:09;;;;;;;8.98;4.10;;;;;;;;;;5067072;28;20082;-76
2022/03/09 07:49:37;;;;;;;5.43;3.60;;;;;;;;;;5070728;28;20086;-76
2022/03/09 07:52:09;;;;;;;5.68;3.55;;;;;;;;;;5070548;28;20041;-76
2022/03/09 07:54:48;;;;;;;6.75;3.30;;;;;;;;;;5071032;28;20073;-81
2022/03/09 07:57:14;;;;;;;5.78;3.22;;;;;;;;;;5067990;28;20044;-77
2022/03/09 07:59:41;;;;;;;5.18;3.53;;;;;;;;;;5071278;28;20568;-77
2022/03/09 08:02:07;;;;;;;6.22;3.63;;;;;;;;;;5069544;28;20064;-76
2022/03/09 08:04:34;;;;;;;13.40;4.63;;;;;;;;;;5074774;28;20733;-76
2022/03/09 08:07:00;;;;;;;6.68;3.80;;;;;;;;;;5069268;28;20048;-76
2022/03/09 08:09:26;;;;;;;7.18;3.65;;;;;;;;;;5073829;28;20072;-76
2022/03/09 08:11:53;;;;;;;12.27;4.13;;;;;;;;;;5072709;28;20045;-76
2022/03/09 08:14:21;;;;;;;7.82;4.63;;;;;;;;;;5073896;28;20048;-77
2022/03/09 08:16:48;;;;;;;9.10;4.13;;;;;;;;;;5073173;28;20044;-77
2022/03/09 08:19:15;;;;;;;10.00;5.13;;;;;;;;;;5074086;28;20041;-77
2022/03/09 08:21:41;;;;;;;8.45;4.35;;;;;;;;;;5070985;28;20041;-76
2022/03/09 08:24:08;;;;;;;5.55;3.42;;;;;;;;;;5066125;28;20079;-76
2022/03/09 08:26:34;;;;;;;7.82;3.63;;;;;;;;;;5070759;28;20087;-77
2022/03/09 08:29:00;;;;;;;9.82;4.93;;;;;;;;;;5072401;28;20053;-76
2022/03/09 08:31:27;;;;;;;10.30;4.35;;;;;;;;;;5075063;28;20044;-77
2022/03/09 08:33:55;;;;;;;9.15;5.00;;;;;;;;;;5071610;28;20040;-77
2022/03/09 08:36:21;;;;;;;8.85;4.97;;;;;;;;;;5069200;28;20048;-76
2022/03/09 08:38:47;;;;;;;8.82;4.25;;;;;;;;;;5073634;28;20045;-77
2022/03/09 08:41:13;;;;;;;8.82;4.03;;;;;;;;;;5071008;28;20123;-76
2022/03/09 08:43:39;;;;;;;10.02;4.20;;;;;;;;;;5069785;28;20111;-77
2022/03/09 08:46:06;;;;;;;9.32;4.45;;;;;;;;;;5073196;28;21032;-76
2022/03/09 08:48:32;;;;;;;8.30;3.92;;;;;;;;;;5073382;28;20075;-76
2022/03/09 08:50:58;;;;;;;7.50;3.65;;;;;;;;;;5069891;28;20040;-76
2022/03/09 08:53:24;;;;;;;5.30;2.97;;;;;;;;;;5072369;28;20052;-76
2022/03/09 08:55:50;;;;;;;6.38;2.65;;;;;;;;;;5066212;28;20072;-76
2022/03/09 08:58:16;;;;;;;8.15;3.40;;;;;;;;;;5071994;28;20044;-76
2022/03/09 09:00:44;;;;;;;7.50;2.97;;;;;;;;;;5070978;28;20116;-76
2022/03/09 09:03:10;;;;;;;5.40;3.45;;;;;;;;;;5068458;28;20143;-76
2022/03/09 09:05:36;;;;;;;5.03;2.65;;;;;;;;;;5071594;28;20052;-76
2022/03/09 09:08:03;;;;;;;10.88;3.92;;;;;;;;;;5072659;28;20033;-76
2022/03/09 09:10:29;;;;;;;6.22;3.33;;;;;;;;;;5074624;28;20040;-76
2022/03/09 09:12:57;;;;;;;10.43;3.75;;;;;;;;;;5071175;28;20051;-75
2022/03/09 09:15:24;;;;;;;9.73;4.35;;;;;;;;;;5067355;28;20434;-76
2022/03/09 09:17:56;;;;;;;6.78;4.15;;;;;;;;;;5072877;28;20049;-76
2022/03/09 09:20:25;;;;;;;6.00;3.53;;;;;;;;;;5070265;28;20131;-76
2022/03/09 09:22:51;;;;;;;8.60;3.38;;;;;;;;;;5071723;28;20604;-76
2022/03/09 09:25:18;;;;;;;8.30;4.28;;;;;;;;;;5072423;28;20047;-76
2022/03/09 09:27:44;;;;;;;5.32;2.95;;;;;;;;;;5073599;28;20041;-76
2022/03/09 09:30:10;;;;;;;7.95;3.63;;;;;;;;;;5075806;28;20040;-75
2022/03/09 09:32:36;;;;;;;6.88;3.15;;;;;;;;;;5070524;28;20056;-76
2022/03/09 09:35:02;;;;;;;5.63;3.35;;;;;;;;;;5062315;28;20041;-76
2022/03/09 09:37:28;;;;;;;7.72;3.28;;;;;;;;;;5069153;28;20051;-76
2022/03/09 09:39:54;;;;;;;9.30;4.22;;;;;;;;;;5071660;28;20096;-76
2022/03/09 09:42:26;;;;;;;8.90;4.38;;;;;;;;;;5066540;28;20047;-76
2022/03/09 09:44:53;;;;;;;6.25;3.85;;;;;;;;;;5080567;28;20519;-76
2022/03/09 09:47:19;;;;;;;6.55;3.15;;;;;;;;;;5069509;28;20071;-76
2022/03/09 09:49:45;;;;;;;5.45;3.40;;;;;;;;;;5075006;28;20170;-75
2022/03/09 09:52:13;;;;;;;5.00;2.97;;;;;;;;;;5069488;28;20037;-76
2022/03/09 09:54:39;;;;;;;9.38;2.75;;;;;;;;;;5069355;28;20041;-77
2022/03/09 09:57:05;;;;;;;6.75;2.90;;;;;;;;;;5062959;28;20094;-76
2022/03/09 09:59:31;;;;;;;5.72;2.58;;;;;;;;;;5065961;28;20589;-77
2022/03/09 10:01:58;;;;;;;10.95;3.50;;;;;;;;;;5066931;28;20040;-76
2022/03/09 10:04:24;;;;;;;6.32;2.60;;;;;;;;;;5068235;28;20183;-76
2022/03/09 10:06:50;;;;;;;5.90;3.10;;;;;;;;;;5073176;28;20530;-76
2022/03/09 10:09:19;;;;;;;9.27;3.38;;;;;;;;;;5071840;28;20419;-76
2022/03/09 10:11:45;;;;;;;5.93;3.13;;;;;;;;;;5072965;28;20743;-76
2022/03/09 10:14:12;;;;;;;9.27;2.88;;;;;;;;;;5071616;28;20041;-75
2022/03/09 10:16:38;;;;;;;7.40;3.58;;;;;;;;;;5066973;28;20107;-76
2022/03/09 10:19:04;;;;;;;6.13;3.65;;;;;;;;;;5073218;28;20490;-76
2022/03/09 10:21:35;;;;;;;6.35;3.63;;;;;;;;;;5068016;28;20083;-76
2022/03/09 10:24:01;;;;;;;5.32;3.25;;;;;;;;;;5069884;28;20098;-76
2022/03/09 10:26:30;;;;;;;7.97;3.03;;;;;;;;;;5065556;28;20041;-76
2022/03/09 10:29:00;;;;;;;5.80;3.35;;;;;;;;;;5068469;28;20037;-76
2022/03/09 10:31:32;;;;;;;8.20;3.47;;;;;;;;;;5071744;28;20045;-76
2022/03/09 10:33:58;;;;;;;;;;;;;;;;;;5066644;28;20147;-76
2022/03/09 10:36:24;;;;;;;6.78;3.85;;;;;;;;;;5078826;28;19943;-76
2022/03/09 10:39:09;;;;;;;5.93;3.05;;;;;;;;;;5070289;28;20037;-76
2022/03/09 10:41:35;;;;;;;5.20;3.55;;;;;;;;;;5071536;28;20037;-76
2022/03/09 10:44:01;;;;;;;5.78;3.30;;;;;;;;;;5068995;28;20056;-76
2022/03/09 10:46:27;;;;;;;6.80;2.95;;;;;;;;;;5067803;28;20032;-76
2022/03/09 10:48:55;;;;;;;5.85;3.78;;;;;;;;;;5068666;28;20116;-76
2022/03/09 10:51:30;;;;;;;6.25;2.95;;;;;;;;;;5073819;28;20044;-76
2022/03/09 10:53:57;;;;;;;9.52;3.20;;;;;;;;;;5071312;28;20053;-75
2022/03/09 10:56:23;;;;;;;7.75;3.30;;;;;;;;;;5078350;28;20040;-77
2022/03/09 10:58:49;;;;;;;8.15;3.17;;;;;;;;;;5068134;28;20523;-76
2022/03/09 11:01:19;;;;;;;4.72;3.20;;;;;;;;;;5073885;28;20055;-76
2022/03/09 11:03:46;;;;;;;8.57;3.42;;;;;;;;;;5064455;28;20123;-76
2022/03/09 11:06:12;;;;;;;7.07;3.25;;;;;;;;;;5066901;28;20056;-75
2022/03/09 11:08:39;;;;;;;8.23;2.97;;;;;;;;;;5071169;28;20049;-76
2022/03/09 11:11:06;;;;;;;7.22;2.47;;;;;;;;;;5070668;28;20052;-76
2022/03/09 11:13:36;;;;;;;4.85;3.22;;;;;;;;;;5066728;28;20080;-76
2022/03/09 11:16:02;;;;;;;8.85;2.55;;;;;;;;;;5064994;28;20041;-75
2022/03/09 11:18:29;;;;;;;8.27;4.22;;;;;;;;;;5071138;28;20048;-76
2022/03/09 11:20:56;;;;;;;4.82;2.85;;;;;;;;;;5070946;28;20076;-76
2022/03/09 11:23:23;;;;;;;6.60;2.95;;;;;;;;;;5070773;28;20033;-76
2022/03/09 11:25:58;;;;;;;4.07;2.55;;;;;;;;;;5070811;28;20095;-76
2022/03/09 11:28:25;;;;;;;4.82;2.55;;;;;;;;;;5065597;28;20039;-76
2022/03/09 11:30:55;;;;;;;4.82;2.00;;;;;;;;;;5072106;28;20104;-76
2022/03/09 11:33:39;;;;;;;5.50;1.95;;;;;;;;;;5074072;28;20047;-76
2022/03/09 11:36:26;;;;;;;5.78;2.28;;;;;;;;;;5069459;28;20127;-76
2022/03/09 11:38:53;;;;;;;4.05;1.95;;;;;;;;;;5078270;28;20094;-76
2022/03/09 11:41:19;;;;;;;8.55;3.17;;;;;;;;;;5068949;28;20052;-76
2022/03/09 11:43:45;;;;;;;8.30;2.13;;;;;;;;;;5071468;28;20335;-76
2022/03/09 11:46:11;;;;;;;3.80;2.03;;;;;;;;;;5079834;28;20051;-76
2022/03/09 11:48:54;;;;;;;5.80;2.83;;;;;;;;;;5076430;28;20045;-76
2022/03/09 11:51:22;;;;;;;7.03;2.08;;;;;;;;;;5078072;28;20049;-76
2022/03/09 11:53:49;;;;;;;4.35;1.95;;;;;;;;;;5073828;28;20588;-76
2022/03/09 11:56:26;;;;;;;7.15;2.40;;;;;;;;;;5075718;28;20033;-76
2022/03/09 11:59:12;;;;;;;4.80;1.75;;;;;;;;;;5070803;28;20051;-76
2022/03/09 12:01:57;;;;;;;4.90;2.20;;;;;;;;;;5074464;28;20044;-76
2022/03/09 12:04:51;;;;;;;3.75;1.90;;;;;;;;;;5073868;28;20060;-77
2022/03/09 12:07:30;;;;;;;4.18;2.40;;;;;;;;;;5068865;28;20037;-76
2022/03/09 12:10:06;;;;;;;4.35;1.90;;;;;;;;;;5072900;28;20040;-75
2022/03/09 12:12:33;;;;;;;3.35;1.63;;;;;;;;;;5068131;28;20095;-76
2022/03/09 12:15:07;;;;;;;5.47;2.22;;;;;;;;;;5072587;28;20094;-75
2022/03/09 12:17:35;;;;;;;5.28;1.73;;;;;;;;;;5065325;28;20121;-76
2022/03/09 12:20:20;;;;;;;5.95;1.88;;;;;;;;;;5069809;28;20380;-75
2022/03/09 12:23:05;;;;;;;5.07;2.42;;;;;;;;;;5067791;28;20097;-75
2022/03/09 12:25:47;;;;;;;3.42;1.73;;;;;;;;;;5076107;28;20052;-75
2022/03/09 12:30:52;;;;;;;5.82;2.42;;;;;;;;;;5065338;28;20072;-75
2022/03/09 12:33:28;;;;;;;4.22;2.45;;;;;;;;;;5066484;28;20029;-75
2022/03/09 12:36:20;;;;;;;6.18;2.38;;;;;;;;;;5065955;28;20123;-75
2022/03/09 12:38:49;;;;;;;6.63;1.90;;;;;;;;;;5062352;28;20071;-75
2022/03/09 12:41:24;;;;;;;5.85;2.17;;;;;;;;;;5064163;28;20115;-75
2022/03/09 12:43:55;;;;;;;5.90;1.98;;;;;;;;;;5064852;28;20163;-75
2022/03/09 12:46:21;;;;;;;7.68;2.45;;;;;;;;;;5064483;28;20045;-75
2022/03/09 12:48:47;;;;;;;3.58;1.90;;;;;;;;;;5064150;28;20040;-75
2022/03/09 12:51:14;;;;;;;4.10;3.53;;;;;;;;;;5068023;28;20045;-75
2022/03/09 12:53:42;;;;;;;7.20;2.63;;;;;;;;;;5067592;28;20530;-75
2022/03/09 12:56:15;;;;;;;9.65;2.17;;;;;;;;;;5067235;28;22136;-75
2022/03/09 12:58:41;;;;;;;7.47;2.30;;;;;;;;;;5066517;28;20196;-76
2022/03/09 13:01:12;;;;;;;4.15;1.90;;;;;;;;;;5069040;28;20103;-75
2022/03/09 13:03:39;;;;;;;3.42;2.08;;;;;;;;;;5070063;28;20044;-75
2022/03/09 13:06:24;;;;;;;3.80;2.08;;;;;;;;;;5069996;28;20068;-76
2022/03/09 13:08:50;;;;;;;3.28;1.73;;;;;;;;;;5061118;28;20049;-75
2022/03/09 13:11:30;;;;;;;3.33;1.60;;;;;;;;;;5072905;28;20040;-76
2022/03/09 13:13:56;;;;;;;3.28;1.92;;;;;;;;;;5072011;28;20064;-75
2022/03/09 13:16:25;;;;;;;1.67;1.35;;;;;;;;;;5070363;28;20538;-75
2022/03/09 13:18:53;;;;;;;4.03;1.67;;;;;;;;;;5066194;28;20071;-75
2022/03/09 13:21:23;;;;;;;4.25;2.08;;;;;;;;;;5069628;28;20099;-76
2022/03/09 13:23:49;;;;;;;5.72;1.42;;;;;;;;;;5064238;28;20095;-75
2022/03/09 13:26:36;;;;;;;4.32;1.90;;;;;;;;;;5075842;28;20610;-75
2022/03/09 13:29:03;;;;;;;2.35;1.73;;;;;;;;;;5065189;28;20119;-75
2022/03/09 13:31:41;;;;;;;5.65;1.73;;;;;;;;;;5072844;28;20045;-75
2022/03/09 13:34:15;;;;;;;6.97;1.83;;;;;;;;;;5069297;28;20048;-75
2022/03/09 13:36:44;;;;;;;3.60;1.67;;;;;;;;;;5068032;28;20168;-77
2022/03/09 13:39:11;;;;;;;1.90;1.17;;;;;;;;;;5064083;28;20094;-76
2022/03/09 13:41:42;;;;;;;5.30;2.15;;;;;;;;;;5068658;28;20052;-76
2022/03/09 13:44:27;;;;;;;8.65;2.40;;;;;;;;;;5075571;28;20336;-76
2022/03/09 13:47:03;;;;;;;3.40;2.05;;;;;;;;;;5071365;28;20045;-76
2022/03/09 13:49:41;;;;;;;5.70;2.20;;;;;;;;;;5073663;28;20052;-75
2022/03/09 13:52:23;;;;;;;3.85;1.65;;;;;;;;;;5068918;28;20044;-76
2022/03/09 13:54:50;;;;;;;4.80;2.10;;;;;;;;;;5070294;28;20040;-75
2022/03/09 13:57:35;;;;;;;2.63;1.60;;;;;;;;;;5072192;28;20048;-75
2022/03/09 14:00:03;;;;;;;5.93;1.58;;;;;;;;;;5070939;28;20033;-76
2022/03/09 14:02:30;;;;;;;6.30;2.08;;;;;;;;;;5069556;28;20041;-76
2022/03/09 14:04:56;;;;;;;3.75;1.77;;;;;;;;;;5080318;27;20041;-76
2022/03/09 14:07:22;;;;;;;5.00;2.28;;;;;;;;;;5075829;28;20098;-76
2022/03/09 14:10:07;;;;;;;5.22;2.15;;;;;;;;;;5069649;28;20044;-75
2022/03/09 14:12:38;;;;;;;4.70;1.70;;;;;;;;;;5087620;27;20036;-74
2022/03/09 14:15:04;;;;;;;3.05;1.95;;;;;;;;;;5090514;27;20036;-74
2022/03/09 14:17:30;;;;;;;3.85;2.03;;;;;;;;;;5073293;27;20538;-74
2022/03/09 14:19:56;;;;;;;2.83;1.63;;;;;;;;;;5087020;27;20499;-74
2022/03/09 14:22:22;;;;;;;4.05;2.00;;;;;;;;;;5087292;27;20041;-74
2022/03/09 14:24:48;;;;;;;5.05;2.75;;;;;;;;;;5086571;27;20510;-74
2022/03/09 14:27:14;;;;;;;4.93;1.90;;;;;;;;;;5072177;28;20763;-74
2022/03/09 14:29:40;;;;;;;3.13;1.67;;;;;;;;;;5088621;27;20044;-74
2022/03/09 14:32:07;;;;;;;3.45;1.80;;;;;;;;;;5085657;27;20052;-74
2022/03/09 14:34:33;;;;;;;5.15;1.65;;;;;;;;;;5088731;27;20043;-74
2022/03/09 14:37:00;;;;;;;9.90;1.95;;;;;;;;;;5082079;27;20120;-74
2022/03/09 14:39:26;;;;;;;4.22;2.10;;;;;;;;;;5092081;27;20040;-74
2022/03/09 14:41:52;;;;;;;3.97;1.90;;;;;;;;;;5074173;28;20639;-74
2022/03/09 14:44:18;;;;;;;5.68;2.30;;;;;;;;;;5088067;27;20048;-74
2022/03/09 14:46:44;;;;;;;3.80;1.92;;;;;;;;;;5072079;28;20656;-74
2022/03/09 14:49:10;;;;;;;3.85;2.05;;;;;;;;;;5086273;27;20550;-74
2022/03/09 14:51:37;;;;;;;6.18;2.03;;;;;;;;;;5093161;27;20064;-75
2022/03/09 14:54:06;;;;;;;4.93;1.98;;;;;;;;;;5068898;27;20486;-74
2022/03/09 14:56:35;;;;;;;3.60;1.88;;;;;;;;;;5091461;27;20969;-74
2022/03/09 14:59:01;;;;;;;4.18;1.67;;;;;;;;;;5084338;27;20110;-74
2022/03/09 15:01:27;;;;;;;4.85;2.17;;;;;;;;;;5089975;27;20040;-74